createdAt,value
2022-12-14T00:01:10.189Z,23.20
2022-12-14T00:03:33.871Z,22.70
2022-12-14T00:05:57.498Z,22.57
2022-12-14T00:08:22.615Z,21.53
2022-12-14T00:10:46.515Z,22.43
2022-12-14T00:13:15.918Z,21.90
2022-12-14T00:15:39.812Z,22.93
2022-12-14T00:18:03.660Z,22.53
2022-12-14T00:20:28.114Z,20.63
2022-12-14T00:22:51.841Z,21.90
2022-12-14T00:25:16.876Z,20.90
2022-12-14T00:27:44.838Z,20.33
2022-12-14T00:30:10.032Z,22.07
2022-12-14T00:32:35.255Z,21.57
2022-12-14T00:35:01.477Z,21.50
2022-12-14T00:37:25.112Z,22.70
2022-12-14T00:39:48.870Z,21.17
2022-12-14T00:42:13.896Z,21.50
2022-12-14T00:44:37.457Z,21.77
2022-12-14T00:47:02.476Z,20.73
2022-12-14T00:49:26.055Z,21.70
2022-12-14T00:51:49.899Z,22.37
2022-12-14T00:54:13.483Z,22.57
2022-12-14T00:56:37.210Z,21.77
2022-12-14T00:59:02.240Z,22.13
2022-12-14T01:01:26.135Z,23.00
2022-12-14T01:03:50.355Z,21.70
2022-12-14T01:06:20.488Z,21.23
2022-12-14T01:08:44.152Z,21.17
2022-12-14T01:11:08.794Z,21.13
2022-12-14T01:13:32.499Z,21.20
2022-12-14T01:16:05.058Z,20.77
2022-12-14T01:18:28.725Z,20.23
2022-12-14T01:20:52.286Z,20.40
2022-12-14T01:23:16.526Z,21.10
2022-12-14T01:25:40.136Z,20.40
2022-12-14T01:28:03.940Z,19.77
2022-12-14T01:30:27.764Z,19.80
2022-12-14T01:32:52.812Z,20.87
2022-12-14T01:35:17.393Z,20.93
2022-12-14T01:37:41.161Z,20.33
2022-12-14T01:40:05.340Z,20.57
2022-12-14T01:42:29.011Z,19.47
2022-12-14T01:44:59.258Z,19.40
2022-12-14T01:47:38.379Z,19.43
2022-12-14T01:50:10.596Z,19.80
2022-12-14T01:52:40.577Z,19.23
2022-12-14T01:55:07.926Z,19.93
2022-12-14T01:57:37.095Z,19.77
2022-12-14T02:00:06.960Z,19.80
2022-12-14T02:02:32.891Z,19.37
2022-12-14T02:05:03.326Z,20.03
2022-12-14T02:07:30.014Z,19.53
2022-12-14T02:09:54.257Z,20.43
2022-12-14T02:12:22.136Z,18.70
2022-12-14T02:14:46.237Z,19.47
2022-12-14T02:17:13.068Z,18.53
2022-12-14T02:19:37.973Z,20.33
2022-12-14T02:22:34.292Z,18.80
2022-12-14T02:25:22.100Z,19.17
2022-12-14T02:28:33.038Z,18.60
2022-12-14T02:31:04.658Z,19.10
2022-12-14T02:33:44.107Z,19.67
2022-12-14T02:36:18.173Z,18.50
2022-12-14T02:38:53.586Z,19.87
2022-12-14T02:41:25.351Z,18.57
2022-12-14T02:43:58.988Z,19.43
2022-12-14T02:46:30.584Z,18.67
2022-12-14T02:49:03.304Z,19.27
2022-12-14T02:51:41.134Z,19.80
2022-12-14T02:54:11.188Z,18.77
2022-12-14T02:56:42.755Z,19.67
2022-12-14T02:59:10.241Z,20.07
2022-12-14T03:01:38.244Z,20.03
2022-12-14T03:04:03.599Z,20.83
2022-12-14T03:06:27.628Z,20.27
2022-12-14T03:08:51.557Z,19.83
2022-12-14T03:11:22.220Z,21.13
2022-12-14T03:13:51.595Z,21.33
2022-12-14T03:16:21.319Z,20.10
2022-12-14T03:18:51.542Z,20.07
2022-12-14T03:21:19.741Z,20.23
2022-12-14T03:23:46.983Z,20.60
2022-12-14T03:26:17.235Z,20.50
2022-12-14T03:28:48.240Z,19.70
2022-12-14T03:31:16.644Z,19.87
2022-12-14T03:33:42.811Z,19.63
2022-12-14T03:36:14.692Z,20.33
2022-12-14T03:38:43.050Z,21.03
2022-12-14T03:41:20.313Z,19.57
2022-12-14T03:43:59.392Z,20.80
2022-12-14T03:46:33.694Z,20.67
2022-12-14T03:49:05.849Z,21.73
2022-12-14T03:51:40.407Z,20.90
2022-12-14T03:54:13.562Z,20.40
2022-12-14T03:56:51.156Z,20.93
2022-12-14T03:59:24.816Z,20.90
2022-12-14T04:01:55.792Z,20.53
2022-12-14T04:04:25.389Z,22.47
2022-12-14T04:07:01.277Z,20.47
2022-12-14T04:09:34.521Z,21.17
2022-12-14T04:12:21.728Z,20.20
2022-12-14T04:15:23.306Z,21.57
2022-12-14T04:18:12.018Z,20.93
2022-12-14T04:20:44.678Z,21.03
2022-12-14T04:23:37.904Z,21.67
2022-12-14T04:26:05.202Z,21.63
2022-12-14T04:28:52.483Z,19.57
2022-12-14T04:31:22.138Z,20.80
2022-12-14T04:33:55.984Z,20.73
2022-12-14T04:36:25.581Z,21.13
2022-12-14T04:38:56.738Z,21.67
2022-12-14T04:41:26.189Z,20.23
2022-12-14T04:43:52.297Z,21.20
2022-12-14T04:46:20.901Z,21.60
2022-12-14T04:48:51.993Z,22.23
2022-12-14T04:51:25.803Z,21.37
2022-12-14T04:53:55.929Z,22.70
2022-12-14T04:56:26.139Z,22.23
2022-12-14T04:58:50.365Z,21.63
2022-12-14T05:01:32.674Z,21.07
2022-12-14T05:04:09.612Z,21.67
2022-12-14T05:06:45.584Z,21.93
2022-12-14T05:09:19.100Z,22.07
2022-12-14T05:11:53.506Z,21.23
2022-12-14T05:14:25.358Z,21.30
2022-12-14T05:16:50.424Z,23.13
2022-12-14T05:19:15.960Z,21.33
2022-12-14T05:21:48.421Z,21.33
2022-12-14T05:24:13.477Z,21.43
2022-12-14T05:26:37.354Z,21.50
2022-12-14T05:29:01.020Z,22.70
2022-12-14T05:31:25.042Z,23.63
2022-12-14T05:33:48.695Z,22.70
2022-12-14T05:36:12.321Z,23.33
2022-12-14T05:38:35.986Z,22.93
2022-12-14T05:41:01.003Z,22.70
2022-12-14T05:43:25.027Z,22.13
2022-12-14T05:45:48.838Z,20.63
2022-12-14T05:48:12.514Z,24.27
2022-12-14T05:50:36.087Z,25.77
2022-12-14T05:52:59.758Z,23.57
2022-12-14T05:55:23.730Z,22.40
2022-12-14T05:57:48.867Z,22.53
2022-12-14T06:00:13.928Z,23.97
2022-12-14T06:02:37.724Z,21.93
2022-12-14T06:05:01.315Z,24.33
2022-12-14T06:07:27.985Z,22.23
2022-12-14T06:09:52.024Z,23.33
2022-12-14T06:12:15.645Z,22.10
2022-12-14T06:14:40.676Z,23.77
2022-12-14T06:17:04.427Z,22.33
2022-12-14T06:19:28.099Z,23.17
2022-12-14T06:21:51.725Z,22.27
2022-12-14T06:24:15.843Z,23.03
2022-12-14T06:26:41.002Z,22.33
2022-12-14T06:29:05.791Z,22.77
2022-12-14T06:31:33.364Z,23.47
2022-12-14T06:33:59.934Z,24.27
2022-12-14T06:36:26.844Z,22.83
2022-12-14T06:38:50.677Z,24.20
2022-12-14T06:41:14.510Z,23.57
2022-12-14T06:43:38.089Z,24.37
2022-12-14T06:46:01.826Z,23.33
2022-12-14T06:48:26.892Z,24.63
2022-12-14T06:50:50.920Z,22.90
2022-12-14T06:53:15.045Z,22.87
2022-12-14T06:55:38.777Z,23.10
2022-12-14T06:58:02.409Z,22.53
2022-12-14T07:00:26.752Z,23.60
2022-12-14T07:02:51.187Z,22.63
2022-12-14T07:05:17.034Z,22.30
2022-12-14T07:07:40.691Z,22.83
2022-12-14T07:10:05.952Z,21.93
2022-12-14T07:12:29.650Z,22.47
2022-12-14T07:14:53.301Z,23.40
2022-12-14T07:17:16.896Z,24.77
2022-12-14T07:19:40.563Z,23.13
2022-12-14T07:22:05.666Z,23.00
2022-12-14T07:24:29.338Z,22.67
2022-12-14T07:26:53.648Z,23.60
2022-12-14T07:29:17.638Z,22.77
2022-12-14T07:31:41.280Z,22.93
2022-12-14T07:34:05.008Z,22.87
2022-12-14T07:36:30.688Z,23.80
2022-12-14T07:38:56.805Z,23.23
2022-12-14T07:41:25.586Z,25.37
2022-12-14T07:43:49.638Z,25.93
2022-12-14T07:46:16.361Z,27.13
2022-12-14T07:48:40.512Z,25.50
2022-12-14T07:51:07.369Z,25.27
2022-12-14T07:53:31.384Z,26.20
2022-12-14T07:55:56.633Z,27.13
2022-12-14T07:58:20.381Z,26.27
2022-12-14T08:00:43.960Z,26.67
2022-12-14T08:03:07.615Z,27.97
2022-12-14T08:05:31.228Z,26.23
2022-12-14T08:07:54.965Z,25.47
2022-12-14T08:10:18.807Z,25.00
2022-12-14T08:12:43.821Z,26.20
2022-12-14T08:15:09.759Z,26.13
2022-12-14T08:17:34.105Z,25.13
2022-12-14T08:19:57.726Z,23.80
2022-12-14T08:22:21.422Z,25.13
2022-12-14T08:24:49.356Z,25.10
2022-12-14T08:27:13.411Z,23.27
2022-12-14T08:29:38.522Z,24.13
2022-12-14T08:32:02.644Z,24.00
2022-12-14T08:34:26.216Z,25.07
2022-12-14T08:36:50.404Z,23.90
2022-12-14T08:39:14.515Z,22.97
2022-12-14T08:41:38.831Z,24.07
2022-12-14T08:44:04.366Z,23.57
2022-12-14T08:46:32.349Z,23.73
2022-12-14T08:48:57.156Z,24.33
2022-12-14T08:51:21.429Z,24.60
2022-12-14T08:53:47.687Z,23.57
2022-12-14T08:56:14.364Z,23.93
2022-12-14T08:58:38.224Z,25.87
2022-12-14T09:01:04.499Z,25.93
2022-12-14T09:03:30.107Z,24.17
2022-12-14T09:05:54.187Z,24.93
2022-12-14T09:08:18.092Z,25.53
2022-12-14T09:10:41.742Z,24.73
2022-12-14T09:13:05.371Z,24.37
2022-12-14T09:15:29.077Z,25.07
2022-12-14T09:17:52.714Z,24.03
2022-12-14T09:20:19.078Z,23.77
2022-12-14T09:22:42.683Z,24.33
2022-12-14T09:25:07.413Z,24.60
2022-12-14T09:27:31.047Z,23.17
2022-12-14T09:29:54.760Z,23.50
2022-12-14T09:32:18.429Z,23.43
2022-12-14T09:34:42.145Z,23.60
2022-12-14T09:37:07.919Z,23.67
2022-12-14T09:39:31.777Z,22.47
2022-12-14T09:42:08.924Z,22.50
2022-12-14T09:44:51.734Z,22.60
2022-12-14T09:47:20.724Z,21.57
2022-12-14T09:49:49.527Z,21.70
2022-12-14T09:52:19.032Z,22.27
2022-12-14T09:54:44.817Z,22.63
2022-12-14T09:57:22.738Z,19.50
2022-12-14T09:59:46.565Z,21.67
2022-12-14T10:02:42.200Z,21.80
2022-12-14T10:05:24.885Z,20.93
2022-12-14T10:08:01.842Z,22.30
2022-12-14T10:10:30.351Z,22.27
2022-12-14T10:13:05.167Z,21.63
2022-12-14T10:15:34.308Z,22.37
2022-12-14T10:18:59.107Z,23.67
2022-12-14T10:21:25.214Z,21.90
2022-12-14T10:23:57.750Z,24.47
2022-12-14T10:26:24.559Z,24.03
2022-12-14T10:28:59.273Z,23.37
2022-12-14T10:31:34.779Z,23.83
2022-12-14T10:34:12.343Z,23.53
2022-12-14T10:36:51.798Z,23.17
2022-12-14T10:39:26.370Z,23.47
2022-12-14T10:41:58.684Z,23.33
2022-12-14T10:44:29.689Z,23.57
2022-12-14T10:47:00.224Z,22.37
2022-12-14T10:49:30.017Z,19.80
2022-12-14T10:52:01.625Z,21.53
2022-12-14T10:54:34.334Z,23.23
2022-12-14T10:56:58.416Z,22.70
2022-12-14T10:59:39.834Z,21.70
2022-12-14T11:02:15.559Z,22.37
2022-12-14T11:04:46.708Z,23.17
2022-12-14T11:07:15.023Z,22.33
2022-12-14T11:09:41.004Z,22.67
2022-12-14T11:12:12.718Z,23.07
2022-12-14T11:14:38.233Z,20.67
2022-12-14T11:17:02.046Z,21.63
2022-12-14T11:19:27.385Z,20.23
2022-12-14T11:21:52.677Z,20.90
2022-12-14T11:24:25.348Z,21.43
2022-12-14T11:26:51.303Z,22.80
2022-12-14T11:29:22.676Z,20.57
2022-12-14T11:31:48.465Z,22.50
2022-12-14T11:34:23.855Z,21.27
2022-12-14T11:36:47.696Z,21.67
2022-12-14T11:39:23.680Z,22.57
2022-12-14T11:41:51.921Z,20.73
2022-12-14T11:44:26.206Z,21.87
2022-12-14T11:46:56.527Z,16.53
2022-12-14T11:49:25.735Z,20.90
2022-12-14T11:52:01.550Z,19.20
2022-12-14T11:54:25.353Z,19.47
2022-12-14T11:56:53.706Z,17.53
2022-12-14T11:59:18.628Z,20.77
2022-12-14T12:01:42.568Z,20.03
2022-12-14T12:04:14.261Z,19.93
2022-12-14T12:06:38.017Z,20.03
2022-12-14T12:09:03.784Z,17.87
2022-12-14T12:11:32.764Z,18.97
2022-12-14T12:14:02.728Z,19.53
2022-12-14T12:16:29.823Z,19.80
2022-12-14T12:18:58.605Z,20.33
2022-12-14T12:21:28.059Z,21.20
2022-12-14T12:23:59.372Z,19.57
2022-12-14T12:26:29.306Z,19.40
2022-12-14T12:28:58.643Z,19.73
2022-12-14T12:31:32.978Z,19.83
2022-12-14T12:34:01.571Z,20.70
2022-12-14T12:36:25.974Z,20.23
2022-12-14T12:39:05.308Z,19.60
2022-12-14T12:41:47.801Z,19.97
2022-12-14T12:44:25.928Z,20.17
2022-12-14T12:49:46.106Z,19.23
2022-12-14T12:52:21.419Z,19.90
2022-12-14T12:54:57.117Z,20.27
2022-12-14T12:57:21.958Z,19.77
2022-12-14T12:59:50.209Z,19.57
2022-12-14T13:02:32.991Z,18.47
2022-12-14T13:05:06.967Z,20.27
2022-12-14T13:07:46.352Z,20.37
2022-12-14T13:10:20.292Z,18.73
2022-12-14T13:12:48.911Z,18.23
2022-12-14T13:15:22.059Z,19.80
2022-12-14T13:17:52.463Z,18.63
2022-12-14T13:20:23.999Z,19.27
2022-12-14T13:22:49.646Z,19.73
2022-12-14T13:25:18.587Z,18.33
2022-12-14T13:28:19.437Z,19.50
2022-12-14T13:31:06.635Z,19.40
2022-12-14T13:34:02.829Z,18.43
2022-12-14T13:36:50.150Z,18.27
2022-12-14T13:39:57.404Z,17.37
2022-12-14T13:42:31.860Z,18.57
2022-12-14T13:45:01.404Z,18.37
2022-12-14T13:47:39.938Z,19.03
2022-12-14T13:52:52.093Z,19.00
2022-12-14T13:55:32.038Z,19.30
2022-12-14T13:58:08.053Z,18.57
2022-12-14T14:00:54.145Z,18.70
2022-12-14T14:03:54.412Z,18.77
2022-12-14T14:06:40.008Z,17.77
2022-12-14T14:09:48.305Z,18.37
2022-12-14T14:12:45.074Z,18.80
2022-12-14T14:15:38.440Z,18.63
2022-12-14T14:18:21.457Z,18.07
2022-12-14T14:20:48.286Z,18.20
2022-12-14T14:23:38.025Z,18.13
2022-12-14T14:26:28.068Z,19.23
2022-12-14T14:29:25.260Z,19.23
2022-12-14T14:31:55.725Z,18.50
2022-12-14T14:34:26.753Z,20.30
2022-12-14T14:36:51.936Z,19.67
2022-12-14T14:42:25.027Z,20.50
2022-12-14T14:44:54.705Z,19.80
2022-12-14T14:47:26.799Z,22.03
2022-12-14T14:49:55.977Z,21.33
2022-12-14T14:53:08.585Z,23.97
2022-12-14T14:55:59.363Z,25.17
2022-12-14T14:58:33.413Z,26.83
2022-12-14T15:01:10.812Z,25.73
2022-12-14T15:03:46.479Z,23.23
2022-12-14T15:06:15.786Z,22.30
2022-12-14T15:08:42.244Z,23.47
2022-12-14T15:11:18.266Z,25.03
2022-12-14T15:13:49.032Z,24.10
2022-12-14T15:16:25.741Z,23.27
2022-12-14T15:18:49.414Z,22.83
2022-12-14T15:21:15.647Z,23.37
2022-12-14T15:23:43.739Z,24.63
2022-12-14T15:26:17.628Z,23.40
2022-12-14T15:28:41.512Z,22.93
2022-12-14T15:31:06.080Z,23.80
2022-12-14T15:33:35.038Z,22.63
2022-12-14T15:36:06.075Z,25.03
2022-12-14T15:38:34.556Z,27.23
2022-12-14T15:40:59.950Z,25.57
2022-12-14T15:43:26.869Z,26.50
2022-12-14T15:45:54.283Z,27.13
2022-12-14T15:48:24.715Z,26.67
2022-12-14T15:50:52.784Z,27.10
2022-12-14T15:53:26.213Z,24.63
2022-12-14T15:55:59.839Z,26.63
2022-12-14T15:58:31.949Z,26.90
2022-12-14T16:00:59.765Z,29.50
2022-12-14T16:03:32.801Z,28.77
2022-12-14T16:05:57.949Z,30.07
2022-12-14T16:08:22.474Z,33.37
2022-12-14T16:10:47.700Z,27.77
2022-12-14T16:13:21.905Z,29.53
2022-12-14T16:15:47.303Z,27.37
2022-12-14T16:18:15.580Z,27.47
2022-12-14T16:20:40.189Z,26.07
2022-12-14T16:23:07.669Z,25.00
2022-12-14T16:25:33.449Z,27.33
2022-12-14T16:27:57.117Z,26.80
2022-12-14T16:30:30.754Z,27.27
2022-12-14T16:33:17.366Z,26.03
2022-12-14T16:35:41.208Z,26.47
2022-12-14T16:38:10.146Z,27.53
2022-12-14T16:40:37.189Z,28.00
2022-12-14T16:43:01.146Z,27.97
2022-12-14T16:46:13.202Z,28.07
2022-12-14T16:48:45.158Z,28.07
2022-12-14T16:51:58.111Z,29.87
2022-12-14T16:54:27.268Z,30.53
2022-12-14T16:56:59.174Z,31.10
2022-12-14T16:59:28.454Z,30.60
2022-12-14T17:01:52.679Z,33.07
2022-12-14T17:04:20.376Z,31.67
2022-12-14T17:06:50.433Z,31.53
2022-12-14T17:09:20.371Z,32.10
2022-12-14T17:11:44.654Z,32.63
2022-12-14T17:14:08.295Z,32.47
2022-12-14T17:16:32.075Z,32.63
2022-12-14T17:18:55.773Z,31.50
2022-12-14T17:21:26.572Z,31.80
2022-12-14T17:23:50.632Z,31.63
2022-12-14T17:26:22.192Z,33.60
2022-12-14T17:28:45.910Z,35.47
2022-12-14T17:31:12.595Z,35.33
2022-12-14T17:33:36.429Z,38.33
2022-12-14T17:36:00.015Z,37.00
2022-12-14T17:38:25.550Z,37.97
2022-12-14T17:40:51.391Z,36.10
2022-12-14T17:43:20.136Z,36.57
2022-12-14T17:45:44.190Z,36.13
2022-12-14T17:48:11.591Z,34.80
2022-12-14T17:50:35.328Z,35.93
2022-12-14T17:52:59.385Z,37.47
2022-12-14T17:55:27.320Z,36.80
2022-12-14T17:57:52.197Z,36.00
2022-12-14T18:00:38.541Z,38.33
2022-12-14T18:03:02.685Z,35.07
2022-12-14T18:05:26.462Z,36.43
2022-12-14T18:07:50.405Z,33.80
2022-12-14T18:10:17.723Z,34.47
2022-12-14T18:12:43.213Z,34.47
2022-12-14T18:15:17.414Z,34.83
2022-12-14T18:17:41.126Z,35.87
2022-12-14T18:20:05.073Z,37.10
2022-12-14T18:22:28.809Z,33.77
2022-12-14T18:24:52.376Z,35.43
2022-12-14T18:27:17.052Z,34.77
2022-12-14T18:29:42.130Z,34.97
2022-12-14T18:32:06.705Z,35.47
2022-12-14T18:34:30.255Z,36.00
2022-12-14T18:36:54.320Z,37.63
2022-12-14T18:39:18.283Z,38.27
2022-12-14T18:41:42.004Z,38.57
2022-12-14T18:44:06.010Z,41.77
2022-12-14T18:46:31.504Z,39.37
2022-12-14T18:48:55.670Z,39.77
2022-12-14T18:51:23.541Z,46.70
2022-12-14T18:53:47.283Z,43.67
2022-12-14T18:56:12.849Z,45.23
2022-12-14T18:58:36.470Z,46.43
2022-12-14T19:01:01.372Z,44.63
2022-12-14T19:03:29.300Z,42.17
2022-12-14T19:05:53.855Z,43.07
2022-12-14T19:08:17.539Z,43.00
2022-12-14T19:10:44.161Z,43.43
2022-12-14T19:13:09.655Z,44.37
2022-12-14T19:15:36.184Z,43.73
2022-12-14T19:18:00.533Z,42.43
2022-12-14T19:20:27.065Z,46.07
2022-12-14T19:22:51.602Z,45.60
2022-12-14T19:25:15.792Z,50.43
2022-12-14T19:30:25.128Z,53.00
2022-12-14T19:32:48.691Z,51.20
2022-12-14T19:35:12.878Z,47.43
2022-12-14T19:37:37.918Z,49.07
2022-12-14T19:40:02.557Z,46.03
2022-12-14T19:42:26.610Z,46.43
2022-12-14T19:44:50.283Z,48.33
2022-12-14T19:47:14.185Z,49.33
2022-12-14T19:49:37.976Z,47.10
2022-12-14T19:52:01.629Z,47.73
2022-12-14T19:54:27.906Z,47.13
2022-12-14T19:56:52.129Z,47.67
2022-12-14T19:59:15.749Z,51.13
2022-12-14T20:01:44.675Z,48.43
2022-12-14T20:04:11.545Z,47.47
2022-12-14T20:06:35.429Z,48.40
2022-12-14T20:08:59.860Z,46.47
2022-12-14T20:11:25.376Z,47.07
2022-12-14T20:13:54.701Z,45.23
2022-12-14T20:16:22.140Z,47.50
2022-12-14T20:18:46.411Z,45.83
2022-12-14T20:21:15.009Z,46.60
2022-12-14T20:23:42.629Z,48.23
2022-12-14T20:26:10.532Z,52.50
2022-12-14T20:28:35.778Z,66.73
2022-12-14T20:31:00.602Z,60.03
2022-12-14T20:33:29.914Z,59.13
2022-12-14T20:35:54.708Z,58.97
2022-12-14T20:38:18.365Z,57.90
2022-12-14T20:40:41.993Z,52.27
2022-12-14T20:43:05.650Z,48.30
2022-12-14T20:45:30.731Z,50.27
2022-12-14T20:47:55.487Z,48.03
2022-12-14T20:50:19.342Z,48.30
2022-12-14T20:52:42.966Z,57.77
2022-12-14T20:55:07.326Z,48.20
2022-12-14T20:57:33.163Z,50.90
2022-12-14T20:59:59.339Z,49.03
2022-12-14T21:02:25.806Z,49.47
2022-12-14T21:04:49.551Z,47.87
2022-12-14T21:07:13.187Z,50.27
2022-12-14T21:09:38.112Z,49.93
2022-12-14T21:12:19.164Z,50.03
2022-12-14T21:14:44.803Z,52.07
2022-12-14T21:17:08.398Z,51.40
2022-12-14T21:19:35.948Z,54.27
2022-12-14T21:21:59.784Z,51.30
2022-12-14T21:25:00.403Z,53.03
2022-12-14T21:27:10.225Z,53.17
2022-12-14T21:29:34.220Z,52.23
2022-12-14T21:31:58.038Z,55.60
2022-12-14T21:34:23.855Z,56.30
2022-12-14T21:36:49.458Z,56.60
2022-12-14T21:39:15.067Z,54.90
2022-12-14T21:41:55.960Z,53.10
2022-12-14T21:44:19.735Z,50.43
2022-12-14T21:46:43.337Z,51.47
2022-12-14T21:49:07.618Z,53.33
2022-12-14T21:51:31.359Z,51.23
2022-12-14T21:54:00.724Z,60.93
2022-12-14T21:56:41.478Z,53.97
2022-12-14T21:59:05.189Z,62.17
2022-12-14T22:01:28.927Z,57.90
2022-12-14T22:03:54.158Z,55.73
2022-12-14T22:06:17.815Z,57.77
2022-12-14T22:08:41.497Z,60.57
2022-12-14T22:11:07.130Z,59.33
2022-12-14T22:13:31.399Z,60.67
2022-12-14T22:15:55.310Z,66.10
2022-12-14T22:18:18.987Z,60.03
2022-12-14T22:20:42.660Z,55.43
2022-12-14T22:23:06.306Z,56.87
2022-12-14T22:25:29.926Z,60.43
2022-12-14T22:27:55.075Z,57.13
2022-12-14T22:30:19.167Z,56.40
2022-12-14T22:32:43.226Z,57.17
2022-12-14T22:35:09.628Z,55.40
2022-12-14T22:37:33.322Z,54.60
2022-12-14T22:39:57.014Z,54.30
2022-12-14T22:42:20.689Z,50.80
2022-12-14T22:44:45.866Z,49.67
2022-12-14T22:47:09.549Z,50.30
2022-12-14T22:49:33.185Z,49.43
2022-12-14T22:51:56.881Z,53.47
2022-12-14T22:54:25.431Z,50.40
2022-12-14T22:56:54.080Z,50.93
2022-12-14T22:59:22.248Z,51.40
2022-12-14T23:01:49.730Z,50.13
2022-12-14T23:04:15.437Z,50.20
2022-12-14T23:06:39.462Z,52.17
2022-12-14T23:09:20.550Z,48.87
2022-12-14T23:12:01.421Z,51.33
2022-12-14T23:14:42.332Z,49.73
2022-12-14T23:17:25.872Z,49.33
2022-12-14T23:20:06.757Z,47.53
2022-12-14T23:22:49.847Z,49.07
2022-12-14T23:25:30.801Z,49.70
2022-12-14T23:28:11.772Z,49.77
2022-12-14T23:30:52.874Z,50.73
2022-12-14T23:33:35.237Z,53.47
2022-12-14T23:36:20.080Z,51.37
2022-12-14T23:39:00.825Z,49.97
2022-12-14T23:41:42.025Z,52.37
2022-12-14T23:44:23.079Z,49.27
2022-12-14T23:47:04.125Z,46.00
2022-12-14T23:49:46.740Z,46.00
2022-12-14T23:52:27.621Z,45.50
2022-12-14T23:55:08.481Z,44.30
2022-12-14T23:57:49.681Z,43.90
